Time;durP1;ratioP1;P1;durP2;ratioP2;P2;SDS_P1;SDS_P2;PMS_P1;PMS_P2;Temp;Humidity;BMP_temperature;BMP_pressure;BME280_temperature;BME280_humidity;BME280_pressure;Samples;Min_cycle;Max_cycle;Signal;HPM_P1;HPM_P2
2023/04/10 00:00:57;;;;;;;;;;;;;;;4.42;87.97;97126.44;5024015;28;19917;-69
2023/04/10 00:03:23;;;;;;;;;;;;;;;4.37;88.18;97125.47;5014182;28;20283;-69
2023/04/10 00:05:48;;;;;;;;;;;;;;;4.33;88.63;97119.06;5029269;28;20350;-69
2023/04/10 00:08:13;;;;;;;;;;;;;;;4.36;88.52;97117.66;5023545;28;19955;-69
2023/04/10 00:10:39;;;;;;;;;;;;;;;4.28;88.99;97119.22;5031428;28;19941;-70
2023/04/10 00:13:04;;;;;;;;;;;;;;;4.28;88.97;97113.78;5024635;28;20414;-70
2023/04/10 00:15:30;;;;;;;;;;;;;;;4.29;88.82;97120.84;5023896;28;19932;-68
2023/04/10 00:17:55;;;;;;;;;;;;;;;4.31;88.95;97125.94;5022225;28;19928;-68
2023/04/10 00:20:21;;;;;;;;;;;;;;;4.28;88.61;97119.22;5019155;28;19971;-69
2023/04/10 00:22:47;;;;;;;;;;;;;;;4.19;89.68;97115.69;5024482;28;19917;-70
2023/04/10 00:25:12;;;;;;;;;;;;;;;4.16;89.48;97117.13;5018399;28;20374;-70
2023/04/10 00:27:37;;;;;;;;;;;;;;;4.18;89.50;97122.25;5023769;28;20392;-70
2023/04/10 00:30:03;;;;;;;;;;;;;;;4.13;89.85;97123.16;5021502;28;20426;-70
2023/04/10 00:32:28;;;;;;;;;;;;;;;4.06;90.41;97122.03;5021916;28;19917;-70
2023/04/10 00:34:53;;;;;;;;;;;;;;;4.06;90.23;97125.53;5023621;28;19924;-70
2023/04/10 00:37:19;;;;;;;;;;;;;;;4.12;89.81;97118.84;5016513;28;19924;-71
2023/04/10 00:39:44;;;;;;;;;;;;;;;4.12;89.79;97118.84;5023980;28;20012;-70
2023/04/10 00:42:10;;;;;;;;;;;;;;;4.22;89.10;97117.78;5019630;28;19924;-69
2023/04/10 00:44:36;;;;;;;;;;;;;;;4.19;89.07;97113.78;5023085;28;19921;-69
2023/04/10 00:47:05;;;;;;;;;;;;;;;4.25;89.03;97121.75;5021428;28;19929;-69
2023/04/10 00:49:30;;;;;;;;;;;;;;;4.21;88.70;97116.16;5023095;28;19925;-69
2023/04/10 00:51:55;;;;;;;;;;;;;;;4.21;88.59;97114.28;5010878;28;19926;-70
2023/04/10 00:54:21;;;;;;;;;;;;;;;4.17;89.10;97116.00;4997899;28;19925;-69
2023/04/10 00:56:48;;;;;;;;;;;;;;;4.17;88.91;97117.91;4985392;28;19921;-69
2023/04/10 00:59:13;;;;;;;;;;;;;;;4.10;88.94;97112.16;4999267;28;19917;-69
2023/04/10 01:01:39;;;;;;;;;;;;;;;4.01;89.74;97106.69;5003283;28;20374;-69
2023/04/10 01:04:04;;;;;;;;;;;;;;;3.95;90.46;97107.97;5011448;28;19921;-69
2023/04/10 01:06:33;;;;;;;;;;;;;;;3.88;90.61;97111.13;5018589;28;20014;-69
2023/04/10 01:09:01;;;;;;;;;;;;;;;3.86;91.25;97104.44;5023703;28;19921;-69
2023/04/10 01:11:38;;;;;;;;;;;;;;;3.75;91.35;97104.69;5017698;28;20369;-68
2023/04/10 01:14:19;;;;;;;;;;;;;;;3.95;89.99;97097.91;5019016;28;19917;-69
2023/04/10 01:16:55;;;;;;;;;;;;;;;3.93;89.82;97096.66;5022487;28;19924;-69
2023/04/10 01:19:26;;;;;;;;;;;;;;;3.85;90.08;97105.53;5018172;28;20290;-69
2023/04/10 01:21:53;;;;;;;;;;;;;;;3.82;90.26;97099.63;5022917;28;19917;-69
2023/04/10 01:24:30;;;;;;;;;;;;;;;3.80;90.21;97101.84;5017971;28;19925;-69
2023/04/10 01:26:58;;;;;;;;;;;;;;;3.82;90.36;97099.63;5022905;28;19917;-68
2023/04/10 01:29:26;;;;;;;;;;;;;;;3.77;90.54;97101.69;5019094;28;20891;-69
2023/04/10 01:31:58;;;;;;;;;;;;;;;3.71;90.83;97098.31;5023163;28;19932;-70
2023/04/10 01:34:31;;;;;;;;;;;;;;;3.73;91.08;97100.72;5017498;28;19925;-70
2023/04/10 01:37:01;;;;;;;;;;;;;;;3.73;90.63;97103.44;5022877;28;20305;-68
2023/04/10 01:39:27;;;;;;;;;;;;;;;3.80;90.21;97095.66;5017623;28;20018;-70
2023/04/10 01:41:53;;;;;;;;;;;;;;;3.77;90.28;97101.69;5022503;28;19975;-70
2023/04/10 01:44:27;;;;;;;;;;;;;;;3.81;89.88;97108.84;4999577;28;19923;-68
2023/04/10 01:46:53;;;;;;;;;;;;;;;3.80;89.71;97109.19;5012164;28;19925;-70
2023/04/10 01:49:19;;;;;;;;;;;;;;;3.87;89.09;97111.44;5014998;28;19989;-73
2023/04/10 01:51:46;;;;;;;;;;;;;;;3.87;88.95;97100.59;5035361;28;19927;-70
2023/04/10 01:54:12;;;;;;;;;;;;;;;3.84;89.44;97104.75;5034763;28;19928;-70
2023/04/10 01:56:37;;;;;;;;;;;;;;;3.79;89.73;97097.53;5036675;28;19921;-69
2023/04/10 01:59:02;;;;;;;;;;;;;;;3.71;90.31;97094.78;5020212;28;19947;-69
2023/04/10 02:01:28;;;;;;;;;;;;;;;3.69;90.73;97091.59;5019167;28;19921;-69
2023/04/10 02:03:54;;;;;;;;;;;;;;;3.67;90.26;97094.59;5033394;28;19945;-70
2023/04/10 02:06:37;;;;;;;;;;;;;;;3.74;89.53;97091.47;5004543;28;19953;-69
2023/04/10 02:09:09;;;;;;;;;;;;;;;3.67;89.74;97091.09;5000445;28;20286;-68
2023/04/10 02:11:35;;;;;;;;;;;;;;;3.62;90.89;97092.84;5016149;28;19944;-69
2023/04/10 02:14:03;;;;;;;;;;;;;;;3.67;89.79;97088.41;5021035;28;19944;-69
2023/04/10 02:16:30;;;;;;;;;;;;;;;3.59;90.31;97088.03;5019067;28;19917;-69
2023/04/10 02:18:57;;;;;;;;;;;;;;;3.56;90.73;97088.66;5021000;28;19975;-67
2023/04/10 02:21:23;;;;;;;;;;;;;;;3.47;90.72;97087.81;5015678;28;20208;-68
2023/04/10 02:23:48;;;;;;;;;;;;;;;3.38;90.75;97090.47;4995150;28;19999;-68
2023/04/10 02:26:14;;;;;;;;;;;;;;;3.38;91.38;97089.69;5023581;28;19917;-69
2023/04/10 02:28:39;;;;;;;;;;;;;;;3.36;92.02;97092.69;5023132;28;19917;-69
2023/04/10 02:31:05;;;;;;;;;;;;;;;3.11;92.88;97087.94;5016198;28;19917;-68
2023/04/10 02:33:30;;;;;;;;;;;;;;;3.03;93.72;97089.47;5021627;28;20290;-68
2023/04/10 02:35:55;;;;;;;;;;;;;;;3.02;94.52;97087.88;5022236;28;20301;-69
2023/04/10 02:38:21;;;;;;;;;;;;;;;2.93;94.53;97093.22;5015068;28;20366;-67
2023/04/10 02:40:46;;;;;;;;;;;;;;;2.72;95.26;97087.50;5023933;28;20433;-68
2023/04/10 02:43:11;;;;;;;;;;;;;;;2.41;97.87;97095.47;5020262;28;19932;-68
2023/04/10 02:45:37;;;;;;;;;;;;;;;2.18;99.77;97090.03;5024397;28;20337;-69
2023/04/10 02:48:04;;;;;;;;;;;;;;;2.00;100.00;97085.53;5003569;28;20370;-68
2023/04/10 02:50:31;;;;;;;;;;;;;;;1.97;100.00;97086.16;5005172;28;19921;-68
2023/04/10 02:52:56;;;;;;;;;;;;;;;2.01;100.00;97089.84;5025062;28;20340;-68
2023/04/10 02:55:21;;;;;;;;;;;;;;;1.81;100.00;97091.84;5021156;28;19925;-69
2023/04/10 02:57:47;;;;;;;;;;;;;;;1.68;100.00;97095.34;4992220;28;19956;-69
2023/04/10 03:00:13;;;;;;;;;;;;;;;1.49;100.00;97098.91;5004210;28;19921;-70
2023/04/10 03:02:38;;;;;;;;;;;;;;;1.42;100.00;97086.91;5024981;28;19921;-70
2023/04/10 03:05:03;;;;;;;;;;;;;;;2.06;100.00;97087.03;5009688;28;19971;-69
2023/04/10 03:07:29;;;;;;;;;;;;;;;2.44;99.85;97078.66;5015466;28;19924;-69
2023/04/10 03:09:54;;;;;;;;;;;;;;;2.37;99.84;97083.69;5025553;28;20349;-69
2023/04/10 03:12:19;;;;;;;;;;;;;;;2.35;100.00;97081.28;5021498;28;19967;-69
2023/04/10 03:14:45;;;;;;;;;;;;;;;2.24;99.72;97083.41;5024647;28;19952;-70
2023/04/10 03:17:11;;;;;;;;;;;;;;;2.27;100.00;97088.22;5020219;28;19921;-70
2023/04/10 03:19:36;;;;;;;;;;;;;;;2.16;99.67;97088.72;5024618;28;19984;-69
2023/04/10 03:22:02;;;;;;;;;;;;;;;2.23;100.00;97097.22;5025290;28;19951;-69
2023/04/10 03:24:27;;;;;;;;;;;;;;;2.26;99.40;97086.59;5021902;28;19928;-69
2023/04/10 03:26:53;;;;;;;;;;;;;;;2.29;99.36;97087.91;5025348;28;19921;-70
2023/04/10 03:29:18;;;;;;;;;;;;;;;2.23;99.33;97087.22;5020993;28;20402;-69
2023/04/10 03:31:44;;;;;;;;;;;;;;;2.05;100.00;97077.31;5028739;28;19919;-68
2023/04/10 03:34:10;;;;;;;;;;;;;;;1.90;100.00;97083.84;5040527;28;19917;-68
2023/04/10 03:36:35;;;;;;;;;;;;;;;1.81;100.00;97088.34;5035794;28;19924;-70
2023/04/10 03:39:00;;;;;;;;;;;;;;;1.76;100.00;97086.53;5025352;28;20012;-68
2023/04/10 03:41:26;;;;;;;;;;;;;;;1.61;100.00;97095.72;5003013;28;19921;-67
2023/04/10 03:43:51;;;;;;;;;;;;;;;1.67;100.00;97086.41;5024260;28;20364;-69
2023/04/10 03:46:16;;;;;;;;;;;;;;;1.56;100.00;97086.94;5020047;28;19917;-68
2023/04/10 03:48:42;;;;;;;;;;;;;;;1.52;100.00;97095.63;5023936;28;19917;-68
2023/04/10 03:51:07;;;;;;;;;;;;;;;1.64;100.00;97094.31;5019552;28;19917;-69
2023/04/10 03:53:34;;;;;;;;;;;;;;;1.55;100.00;97099.63;5012286;28;19925;-69
2023/04/10 03:56:00;;;;;;;;;;;;;;;1.46;100.00;97109.50;4967220;28;20382;-69
2023/04/10 03:58:26;;;;;;;;;;;;;;;1.40;100.00;97103.38;5000477;28;19972;-68
2023/04/10 04:00:51;;;;;;;;;;;;;;;1.38;100.00;97105.59;5004301;28;20409;-70
2023/04/10 04:03:16;;;;;;;;;;;;;;;1.35;100.00;97114.28;5001319;28;19917;-68
2023/04/10 04:05:41;;;;;;;;;;;;;;;1.22;100.00;97115.84;5011701;28;19925;-70
2023/04/10 04:08:07;;;;;;;;;;;;;;;1.14;100.00;97114.63;4999229;28;20029;-68
2023/04/10 04:10:32;;;;;;;;;;;;;;;1.10;100.00;97119.03;5004591;28;20449;-68
2023/04/10 04:12:58;;;;;;;;;;;;;;;1.10;100.00;97115.53;5007531;28;19954;-69
2023/04/10 04:15:23;;;;;;;;;;;;;;;1.05;100.00;97118.31;5023761;28;20649;-69
2023/04/10 04:17:49;;;;;;;;;;;;;;;0.60;100.00;97116.00;5027233;28;19933;-69
2023/04/10 04:20:14;;;;;;;;;;;;;;;0.17;100.00;97116.03;5023757;28;19988;-68
2023/04/10 04:22:41;;;;;;;;;;;;;;;-0.11;100.00;97118.53;5026206;28;19921;-68
2023/04/10 04:25:09;;;;;;;;;;;;;;;-0.16;100.00;97125.84;5015402;28;19928;-68
2023/04/10 04:27:35;;;;;;;;;;;;;;;-0.25;100.00;97115.72;5003792;28;19917;-68
2023/04/10 04:30:01;;;;;;;;;;;;;;;-0.30;100.00;97115.78;5001901;28;19972;-69
2023/04/10 04:32:27;;;;;;;;;;;;;;;-0.27;100.00;97125.16;4998252;28;20272;-68
2023/04/10 04:34:52;;;;;;;;;;;;;;;-0.32;100.00;97122.53;4997532;28;19921;-68
2023/04/10 04:37:17;;;;;;;;;;;;;;;-0.24;100.00;97124.59;4998332;28;19940;-69
2023/04/10 04:39:42;;;;;;;;;;;;;;;-0.14;100.00;97118.31;5003153;28;19924;-69
2023/04/10 04:42:08;;;;;;;;;;;;;;;-0.11;100.00;97120.41;4998125;28;20457;-69
2023/04/10 04:44:33;;;;;;;;;;;;;;;-0.07;100.00;97116.88;5013728;28;19928;-69
2023/04/10 04:46:59;;;;;;;;;;;;;;;0.00;100.00;97111.16;5027886;28;19953;-69
2023/04/10 04:49:24;;;;;;;;;;;;;;;0.04;100.00;97112.16;5002248;28;19924;-69
2023/04/10 04:51:49;;;;;;;;;;;;;;;0.06;100.00;97107.28;5014051;28;20310;-69
2023/04/10 04:54:15;;;;;;;;;;;;;;;0.22;100.00;97115.97;5018094;28;20424;-68
2023/04/10 04:56:40;;;;;;;;;;;;;;;0.45;100.00;97108.13;5022696;28;20318;-68
2023/04/10 04:59:05;;;;;;;;;;;;;;;0.53;100.00;97104.78;5017974;28;19924;-68
2023/04/10 05:01:31;;;;;;;;;;;;;;;0.51;100.00;97110.47;5022567;28;19971;-68
2023/04/10 05:03:56;;;;;;;;;;;;;;;0.74;100.00;97103.38;5018043;28;20012;-69
2023/04/10 05:06:21;;;;;;;;;;;;;;;0.96;100.00;97107.38;5004250;28;20499;-69
2023/04/10 05:08:46;;;;;;;;;;;;;;;1.03;100.00;97110.50;5003689;28;19972;-68
2023/04/10 05:11:12;;;;;;;;;;;;;;;1.08;100.00;97115.81;4998925;28;19921;-68
2023/04/10 05:13:37;;;;;;;;;;;;;;;1.55;100.00;97112.31;5003129;28;20334;-69
2023/04/10 05:16:02;;;;;;;;;;;;;;;2.35;100.00;97105.59;5000744;28;19917;-69
2023/04/10 05:18:28;;;;;;;;;;;;;;;3.11;100.00;97121.19;4999607;28;20374;-68
2023/04/10 05:20:53;;;;;;;;;;;;;;;4.05;96.60;97125.84;5002608;28;19917;-69
2023/04/10 05:23:18;;;;;;;;;;;;;;;4.24;89.29;97117.47;5014785;28;19979;-68
2023/04/10 05:25:44;;;;;;;;;;;;;;;5.00;84.69;97119.78;5021684;28;20681;-68
2023/04/10 05:28:09;;;;;;;;;;;;;;;4.37;84.91;97121.97;5016943;28;19928;-69
2023/04/10 05:30:34;;;;;;;;;;;;;;;5.59;82.80;97121.94;5022047;28;19928;-69
2023/04/10 05:33:00;;;;;;;;;;;;;;;6.56;76.90;97117.72;5022657;28;19932;-70
2023/04/10 05:35:25;;;;;;;;;;;;;;;7.00;72.12;97123.63;5017093;28;19928;-69
2023/04/10 05:37:50;;;;;;;;;;;;;;;5.79;74.35;97125.09;5022776;28;19921;-70
2023/04/10 05:40:15;;;;;;;;;;;;;;;5.49;77.00;97120.38;5017845;28;19921;-68
2023/04/10 05:42:41;;;;;;;;;;;;;;;6.46;78.74;97120.81;5021478;28;20612;-69
2023/04/10 05:45:06;;;;;;;;;;;;;;;7.43;70.29;97127.91;5017089;28;19964;-69
2023/04/10 05:47:31;;;;;;;;;;;;;;;7.96;66.55;97130.91;5021773;28;19921;-69
2023/04/10 05:49:57;;;;;;;;;;;;;;;8.50;63.75;97129.13;5021577;28;19939;-69
2023/04/10 05:52:22;;;;;;;;;;;;;;;8.95;60.82;97128.16;5001338;28;20004;-69
2023/04/10 05:54:47;;;;;;;;;;;;;;;9.00;59.11;97136.09;5003129;28;19922;-69
2023/04/10 05:57:13;;;;;;;;;;;;;;;9.18;59.11;97131.16;4997368;28;20008;-71
2023/04/10 05:59:38;;;;;;;;;;;;;;;9.31;57.23;97134.63;5002560;28;19925;-68
2023/04/10 06:02:03;;;;;;;;;;;;;;;9.28;58.58;97130.66;4999512;28;20374;-70
2023/04/10 06:04:28;;;;;;;;;;;;;;;8.99;59.91;97132.56;5011025;28;19926;-68
2023/04/10 06:06:54;;;;;;;;;;;;;;;9.51;58.15;97127.38;5018483;28;20361;-67
2023/04/10 06:09:19;;;;;;;;;;;;;;;9.48;58.39;97128.09;5000746;28;19918;-69
2023/04/10 06:11:45;;;;;;;;;;;;;;;9.94;57.46;97131.25;5006861;28;19953;-70
2023/04/10 06:14:10;;;;;;;;;;;;;;;10.40;53.36;97128.88;5001588;28;19917;-70
2023/04/10 06:16:35;;;;;;;;;;;;;;;10.78;52.97;97141.09;5010125;28;19918;-69
2023/04/10 06:19:00;;;;;;;;;;;;;;;10.49;54.62;97140.44;5010025;28;19921;-70
2023/04/10 06:21:26;;;;;;;;;;;;;;;9.62;57.94;97144.88;5006389;28;19918;-69
2023/04/10 06:23:51;;;;;;;;;;;;;;;10.35;55.08;97150.28;5026287;28;20028;-68
2023/04/10 06:26:17;;;;;;;;;;;;;;;11.33;52.96;97146.59;5022357;28;19981;-69
2023/04/10 06:28:43;;;;;;;;;;;;;;;11.31;53.00;97140.69;5028248;28;20589;-70
2023/04/10 06:31:09;;;;;;;;;;;;;;;11.39;53.00;97147.09;5022458;28;19921;-69
2023/04/10 06:33:35;;;;;;;;;;;;;;;11.71;53.21;97138.72;5025368;28;20358;-70
2023/04/10 06:36:00;;;;;;;;;;;;;;;11.32;54.09;97136.78;5026786;28;19968;-68
2023/04/10 06:38:26;;;;;;;;;;;;;;;11.94;53.01;97136.81;5003610;28;20502;-68
2023/04/10 06:40:51;;;;;;;;;;;;;;;12.80;50.92;97145.66;5026573;28;19921;-69
2023/04/10 06:43:16;;;;;;;;;;;;;;;12.91;49.27;97154.88;5019313;28;19964;-69
2023/04/10 06:45:42;;;;;;;;;;;;;;;14.43;46.04;97149.91;5025949;28;19976;-69
2023/04/10 06:48:07;;;;;;;;;;;;;;;14.94;43.61;97140.06;5023107;28;19917;-70
2023/04/10 06:50:32;;;;;;;;;;;;;;;15.22;42.71;97141.44;5027386;28;19918;-69
2023/04/10 06:52:58;;;;;;;;;;;;;;;15.10;42.77;97137.00;5025399;28;19917;-70
2023/04/10 06:55:27;;;;;;;;;;;;;;;15.76;42.85;97138.91;5026854;28;20152;-70
2023/04/10 06:57:53;;;;;;;;;;;;;;;16.12;41.90;97139.78;5044832;28;19913;-69
2023/04/10 07:00:19;;;;;;;;;;;;;;;16.30;40.98;97145.31;5025015;28;19917;-70
2023/04/10 07:02:45;;;;;;;;;;;;;;;16.10;40.50;97138.56;5045302;28;19928;-69
2023/04/10 07:05:10;;;;;;;;;;;;;;;15.86;41.21;97144.47;5033156;28;19921;-68
2023/04/10 07:07:36;;;;;;;;;;;;;;;15.92;41.10;97144.88;5027061;28;19924;-69
2023/04/10 07:10:01;;;;;;;;;;;;;;;16.04;40.69;97138.16;5028920;28;19921;-69
2023/04/10 07:12:26;;;;;;;;;;;;;;;16.05;40.58;97137.00;5029029;28;19917;-70
2023/04/10 07:14:52;;;;;;;;;;;;;;;16.36;39.96;97129.91;5035426;28;19921;-69
2023/04/10 07:17:17;;;;;;;;;;;;;;;14.96;40.95;97134.97;5021325;28;19925;-69
2023/04/10 07:19:42;;;;;;;;;;;;;;;13.23;43.60;97139.97;5025750;28;19982;-69
2023/04/10 07:22:08;;;;;;;;;;;;;;;14.56;41.81;97128.34;5019032;28;20329;-71
2023/04/10 07:24:33;;;;;;;;;;;;;;;12.20;44.69;97133.34;5026347;28;19960;-70
2023/04/10 07:26:59;;;;;;;;;;;;;;;11.62;47.99;97127.97;5005432;28;19924;-70
2023/04/10 07:29:25;;;;;;;;;;;;;;;13.96;41.97;97134.94;5020854;28;19944;-69
2023/04/10 07:31:50;;;;;;;;;;;;;;;13.88;41.14;97136.03;5027339;28;19921;-69
2023/04/10 07:34:15;;;;;;;;;;;;;;;13.81;40.60;97136.75;5020414;28;19940;-69
2023/04/10 07:36:40;;;;;;;;;;;;;;;14.62;40.56;97134.34;5025670;28;20015;-70
2023/04/10 07:39:06;;;;;;;;;;;;;;;13.62;41.15;97132.22;5019906;28;19921;-69
2023/04/10 07:41:31;;;;;;;;;;;;;;;10.69;47.79;97127.59;5024238;28;20024;-68
2023/04/10 07:43:56;;;;;;;;;;;;;;;10.63;50.47;97131.78;5024226;28;19995;-68
2023/04/10 07:46:22;;;;;;;;;;;;;;;12.70;44.60;97130.59;5014476;28;20494;-70
2023/04/10 07:48:48;;;;;;;;;;;;;;;13.97;41.20;97128.25;5024050;28;20373;-69
2023/04/10 07:51:13;;;;;;;;;;;;;;;15.34;39.79;97129.25;5015592;28;20390;-68
2023/04/10 07:53:39;;;;;;;;;;;;;;;17.42;35.60;97118.28;5004713;28;19925;-69
2023/04/10 07:56:05;;;;;;;;;;;;;;;15.73;38.15;97123.09;4998761;28;20294;-70
2023/04/10 07:58:30;;;;;;;;;;;;;;;12.11;44.67;97121.03;5004194;28;19921;-69
2023/04/10 08:00:56;;;;;;;;;;;;;;;13.11;44.02;97119.78;4986375;28;20326;-69
2023/04/10 08:03:22;;;;;;;;;;;;;;;12.25;45.36;97118.53;4998622;28;20930;-69
2023/04/10 08:05:47;;;;;;;;;;;;;;;14.32;40.71;97125.03;5012391;28;19925;-69
2023/04/10 08:08:13;;;;;;;;;;;;;;;13.15;43.10;97117.88;5018882;28;19928;-70
2023/04/10 08:10:38;;;;;;;;;;;;;;;14.49;39.90;97118.06;5022189;28;20004;-69
2023/04/10 08:13:04;;;;;;;;;;;;;;;12.98;43.88;97121.16;5020497;28;19932;-70
2023/04/10 08:15:29;;;;;;;;;;;;;;;12.59;45.73;97115.91;5021948;28;19932;-69
2023/04/10 08:17:55;;;;;;;;;;;;;;;12.37;45.24;97110.09;5023524;28;20000;-68
2023/04/10 08:20:20;;;;;;;;;;;;;;;11.73;47.20;97111.72;5018476;28;19925;-70
2023/04/10 08:22:45;;;;;;;;;;;;;;;12.79;45.51;97119.34;5023626;28;19963;-69
2023/04/10 08:25:11;;;;;;;;;;;;;;;15.44;40.16;97117.47;5015298;28;20346;-69
2023/04/10 08:27:36;;;;;;;;;;;;;;;12.43;44.95;97114.09;5022467;28;19956;-68
2023/04/10 08:30:01;;;;;;;;;;;;;;;13.36;43.25;97117.38;5023950;28;19928;-68
2023/04/10 08:32:27;;;;;;;;;;;;;;;12.68;44.76;97130.19;5001120;28;19921;-69
2023/04/10 08:34:52;;;;;;;;;;;;;;;12.81;44.51;97119.75;5023281;28;19929;-68
2023/04/10 08:37:18;;;;;;;;;;;;;;;14.78;41.04;97114.75;5016910;28;19924;-69
2023/04/10 08:39:44;;;;;;;;;;;;;;;15.78;38.67;97118.00;5004873;28;19917;-69
2023/04/10 08:42:09;;;;;;;;;;;;;;;12.97;43.38;97112.13;5018160;28;19936;-67
2023/04/10 08:44:35;;;;;;;;;;;;;;;14.20;42.69;97111.53;5005260;28;19922;-69
2023/04/10 08:47:01;;;;;;;;;;;;;;;16.11;38.53;97113.31;5023078;28;19920;-68
2023/04/10 08:49:45;;;;;;;;;;;;;;;15.16;41.11;97112.59;5019799;28;20376;-68
2023/04/10 08:52:17;;;;;;;;;;;;;;;16.79;37.09;97110.53;5018810;28;20013;-70
2023/04/10 08:54:46;;;;;;;;;;;;;;;15.43;38.12;97104.84;5022824;28;19971;-70
2023/04/10 08:57:16;;;;;;;;;;;;;;;16.50;37.34;97107.00;5017777;28;19928;-69
2023/04/10 08:59:41;;;;;;;;;;;;;;;18.90;32.47;97105.03;5022241;28;20079;-70
2023/04/10 09:02:07;;;;;;;;;;;;;;;18.21;33.15;97106.03;5017050;28;20029;-71
2023/04/10 09:04:32;;;;;;;;;;;;;;;17.11;37.90;97106.16;5012859;28;19944;-69
2023/04/10 09:06:57;;;;;;;;;;;;;;;16.78;39.02;97100.66;5011233;28;19918;-69
2023/04/10 09:09:22;;;;;;;;;;;;;;;16.83;38.68;97113.31;4997688;28;20167;-69
2023/04/10 09:11:51;;;;;;;;;;;;;;;17.22;38.51;97106.13;4985707;28;19924;-69
2023/04/10 09:14:20;;;;;;;;;;;;;;;17.08;38.48;97109.72;5000319;28;19971;-69
2023/04/10 09:16:46;;;;;;;;;;;;;;;17.02;38.61;97106.56;5004649;28;19966;-68
2023/04/10 09:19:11;;;;;;;;;;;;;;;16.45;39.54;97112.94;5000324;28;19933;-69
2023/04/10 09:21:36;;;;;;;;;;;;;;;17.14;38.74;97111.69;5004034;28;19921;-69
2023/04/10 09:24:02;;;;;;;;;;;;;;;16.36;39.59;97099.50;5009258;28;20359;-71
2023/04/10 09:26:28;;;;;;;;;;;;;;;15.68;41.61;97110.44;5000788;28;19935;-70
2023/04/10 09:29:06;;;;;;;;;;;;;;;16.19;40.03;97100.31;5003343;28;20021;-70
2023/04/10 09:31:35;;;;;;;;;;;;;;;15.45;41.89;97095.00;5002606;28;20374;-70
2023/04/10 09:34:08;;;;;;;;;;;;;;;15.64;41.44;97096.63;5003184;28;19940;-70
2023/04/10 09:36:33;;;;;;;;;;;;;;;15.63;41.06;97097.03;5001867;28;19929;-69
2023/04/10 09:38:58;;;;;;;;;;;;;;;15.59;40.85;97101.72;5011867;28;19922;-69
2023/04/10 09:41:24;;;;;;;;;;;;;;;15.46;41.18;97093.03;5004874;28;19983;-69
2023/04/10 09:44:04;;;;;;;;;;;;;;;16.33;39.50;97093.97;5018824;28;19994;-71
2023/04/10 09:46:29;;;;;;;;;;;;;;;16.75;39.09;97101.47;5026480;28;19981;-70
2023/04/10 09:48:59;;;;;;;;;;;;;;;17.35;38.64;97099.72;5036834;28;19917;-70
2023/04/10 09:51:29;;;;;;;;;;;;;;;17.66;37.54;97090.88;5034738;28;19917;-68
2023/04/10 09:53:54;;;;;;;;;;;;;;;17.83;37.19;97092.00;5024275;28;20007;-70
2023/04/10 09:56:21;;;;;;;;;;;;;;;18.50;36.83;97084.38;5017203;28;20071;-68
2023/04/10 09:58:47;;;;;;;;;;;;;;;18.78;35.72;97079.75;5021731;28;19917;-70
2023/04/10 10:01:12;;;;;;;;;;;;;;;18.25;36.17;97076.28;5017017;28;19928;-70
2023/04/10 10:03:38;;;;;;;;;;;;;;;17.02;39.52;97073.38;5022368;28;19927;-69
2023/04/10 10:06:04;;;;;;;;;;;;;;;17.45;37.75;97070.44;5006655;28;19917;-69
2023/04/10 10:08:31;;;;;;;;;;;;;;;17.33;39.17;97066.13;5000664;28;19922;-70
2023/04/10 10:10:57;;;;;;;;;;;;;;;17.31;38.54;97062.19;4984394;28;20429;-69
2023/04/10 10:13:27;;;;;;;;;;;;;;;18.28;37.48;97061.59;4996848;28;19914;-69
2023/04/10 10:15:52;;;;;;;;;;;;;;;17.66;38.16;97057.66;5003170;28;19976;-68
2023/04/10 10:18:26;;;;;;;;;;;;;;;17.91;37.20;97049.22;4998185;28;19921;-69
2023/04/10 10:20:52;;;;;;;;;;;;;;;18.46;36.91;97053.91;5002712;28;19924;-70
2023/04/10 10:23:18;;;;;;;;;;;;;;;18.61;36.96;97042.69;5013502;28;19917;-70
2023/04/10 10:25:44;;;;;;;;;;;;;;;18.67;36.61;97035.47;5021759;28;19964;-69
2023/04/10 10:28:11;;;;;;;;;;;;;;;18.61;37.07;97031.59;5016236;28;19960;-68
2023/04/10 10:30:36;;;;;;;;;;;;;;;19.81;35.13;97026.97;5019627;28;19961;-70
2023/04/10 10:33:05;;;;;;;;;;;;;;;19.05;35.98;97021.59;5020841;28;19965;-71
2023/04/10 10:35:31;;;;;;;;;;;;;;;19.78;34.30;97017.47;5023180;28;20366;-68
2023/04/10 10:38:01;;;;;;;;;;;;;;;20.20;33.19;97008.88;5031558;28;19921;-70
2023/04/10 10:40:26;;;;;;;;;;;;;;;19.25;34.33;97008.66;5016793;28;20047;-71
2023/04/10 10:43:03;;;;;;;;;;;;;;;18.81;35.31;97007.59;5022141;28;19965;-70
2023/04/10 10:45:34;;;;;;;;;;;;;;;18.25;37.95;97002.19;5013779;28;19925;-68
2023/04/10 10:48:00;;;;;;;;;;;;;;;18.83;35.93;97001.66;5021524;28;20370;-68
2023/04/10 10:50:46;;;;;;;;;;;;;;;18.59;35.36;96995.16;5015685;28;19918;-68
2023/04/10 10:53:29;;;;;;;;;;;;;;;18.84;36.99;96992.13;4997875;28;20264;-69
2023/04/10 10:55:54;;;;;;;;;;;;;;;18.12;37.98;96995.59;5001238;28;20365;-70
2023/04/10 10:58:39;;;;;;;;;;;;;;;18.54;36.01;96990.84;4997722;28;19918;-70
2023/04/10 11:01:05;;;;;;;;;;;;;;;17.17;37.67;96988.31;5000119;28;20020;-70
2023/04/10 11:03:30;;;;;;;;;;;;;;;17.28;37.97;96982.72;5005944;28;20020;-68
2023/04/10 11:05:57;;;;;;;;;;;;;;;17.10;36.85;96980.03;5024307;28;19929;-70
2023/04/10 11:08:31;;;;;;;;;;;;;;;16.55;38.48;96978.66;5020412;28;20635;-71
2023/04/10 11:11:04;;;;;;;;;;;;;;;15.90;39.47;96972.41;5025463;28;20016;-70
2023/04/10 11:13:30;;;;;;;;;;;;;;;15.28;40.16;96974.31;5024935;28;19921;-70
2023/04/10 11:15:56;;;;;;;;;;;;;;;15.28;40.82;96968.78;5024470;28;19921;-70
2023/04/10 11:18:44;;;;;;;;;;;;;;;15.66;41.11;96963.69;5019100;28;19929;-70
2023/04/10 11:21:10;;;;;;;;;;;;;;;15.82;39.63;96968.88;5014672;28;20020;-68
2023/04/10 11:23:57;;;;;;;;;;;;;;;15.83;38.96;96960.19;5005740;28;19917;-68
2023/04/10 11:26:35;;;;;;;;;;;;;;;15.93;37.90;96960.56;4999952;28;20368;-70
2023/04/10 11:29:01;;;;;;;;;;;;;;;16.03;37.61;96955.03;5006316;28;19918;-70
2023/04/10 11:31:27;;;;;;;;;;;;;;;16.15;37.98;96948.34;5002680;28;19925;-70
2023/04/10 11:33:52;;;;;;;;;;;;;;;15.97;38.03;96948.34;5005347;28;19921;-69
2023/04/10 11:36:18;;;;;;;;;;;;;;;16.00;38.10;96946.75;5001752;28;20315;-71
2023/04/10 11:39:12;;;;;;;;;;;;;;;15.58;38.74;96953.84;5004991;28;20012;-71
2023/04/10 11:41:47;;;;;;;;;;;;;;;15.64;37.96;96952.25;5003215;28;19972;-71
2023/04/10 11:44:16;;;;;;;;;;;;;;;15.58;38.49;96954.63;4999973;28;20437;-71
2023/04/10 11:46:45;;;;;;;;;;;;;;;15.27;38.81;96945.16;5004305;28;20391;-70
2023/04/10 11:49:11;;;;;;;;;;;;;;;15.32;38.73;96947.50;4999924;28;20377;-72
2023/04/10 11:51:36;;;;;;;;;;;;;;;15.54;39.37;96948.31;5014201;28;19917;-71
2023/04/10 11:54:17;;;;;;;;;;;;;;;15.68;38.71;96944.75;5022281;28;19982;-73
2023/04/10 11:56:43;;;;;;;;;;;;;;;15.85;39.12;96937.72;5024473;28;19927;-70
2023/04/10 11:59:09;;;;;;;;;;;;;;;15.77;39.05;96941.63;5019678;28;19918;-70
2023/04/10 12:01:35;;;;;;;;;;;;;;;16.27;37.88;96940.81;5024410;28;19917;-71
2023/04/10 12:04:00;;;;;;;;;;;;;;;16.35;37.35;96926.56;5015742;28;19925;-70
2023/04/10 12:06:26;;;;;;;;;;;;;;;16.48;37.49;96939.97;5023284;28;20379;-72
2023/04/10 12:08:52;;;;;;;;;;;;;;;16.22;38.22;96936.47;5004736;28;19933;-72
2023/04/10 12:11:20;;;;;;;;;;;;;;;16.35;37.68;96932.09;4999277;28;20011;-68
2023/04/10 12:13:46;;;;;;;;;;;;;;;16.32;36.45;96927.34;5004123;28;20285;-71
2023/04/10 12:16:12;;;;;;;;;;;;;;;16.15;35.70;96926.22;4999809;28;19943;-73
2023/04/10 12:18:37;;;;;;;;;;;;;;;16.31;35.41;96922.22;5003786;28;20379;-72
2023/04/10 12:21:03;;;;;;;;;;;;;;;16.46;35.27;96922.97;5002778;28;19918;-70
2023/04/10 12:23:29;;;;;;;;;;;;;;;16.68;36.16;96923.69;5006635;28;19917;-71
2023/04/10 12:26:13;;;;;;;;;;;;;;;16.63;35.44;96919.34;5023844;28;19921;-72
2023/04/10 12:28:40;;;;;;;;;;;;;;;16.67;36.61;96933.94;5023958;28;20055;-69
2023/04/10 12:31:06;;;;;;;;;;;;;;;16.71;35.93;96925.63;5021003;28;19918;-70
2023/04/10 12:33:31;;;;;;;;;;;;;;;16.35;36.25;96923.81;5033089;28;19980;-70
2023/04/10 12:35:56;;;;;;;;;;;;;;;16.21;35.72;96918.31;5041166;28;19921;-72
2023/04/10 12:38:38;;;;;;;;;;;;;;;16.07;37.65;96916.38;5031307;28;20358;-71
2023/04/10 12:41:04;;;;;;;;;;;;;;;16.28;34.35;96920.25;5023037;28;19921;-72
2023/04/10 12:43:34;;;;;;;;;;;;;;;16.55;31.55;96915.84;5022066;28;20393;-70
2023/04/10 12:46:00;;;;;;;;;;;;;;;16.42;32.60;96912.72;5003099;28;19928;-69
2023/04/10 12:48:25;;;;;;;;;;;;;;;16.50;34.18;96910.72;4999218;28;20008;-70